WMT7M LROP-LLBG
Flight info
| Callsign | WMT7M |
|---|---|
| Flight time | N/A |
| Altitude | 35000 |
| Route | IDARU DCT EFJAS DCT MAXOV DCT IVGOT L744 MATEL N616 RIXEN UL620 TETSA UN616 UNSAV UL620 FATIH UG1 IST UT35 AYT UA16 DERYA UM855 TOMBI DCT IDAKU L35 PIKOG L609 ZUKKO |
| Aircraft | A320/M-SDE3FGHIRWY/LB1 |
Departure
| Time | 2026-05-07 13:49 |
|---|---|
| Airport | Bucharest Henri Coandă International Airport (LROP) |
Arrival
| Time | N/A |
|---|---|
| Airport | Ben Gurion International Airport (LLBG) |
| Time | Latitude | Longitude | Altitude | Speed | Heading |
|---|---|---|---|---|---|
| 2026-05-07 13:36 | 44.57013 | 26.07961 | 317 ft | 0 kts | 353° |
| 2026-05-07 13:43 | 44.56999 | 26.07963 | 317 ft | 3 kts | 353° |
| 2026-05-07 13:43 | 44.56982 | 26.07965 | 316 ft | 2 kts | 353° |
| 2026-05-07 13:43 | 44.56965 | 26.07968 | 315 ft | 2 kts | 353° |
| 2026-05-07 13:44 | 44.56949 | 26.07976 | 315 ft | 2 kts | 292° |
| 2026-05-07 13:44 | 44.56947 | 26.07984 | 315 ft | 0 kts | 268° |
| 2026-05-07 13:45 | 44.56946 | 26.07981 | 315 ft | 0 kts | 259° |
| 2026-05-07 13:45 | 44.56943 | 26.07967 | 316 ft | 2 kts | 253° |
| 2026-05-07 13:46 | 44.56935 | 26.07963 | 316 ft | 1 kts | 180° |
| 2026-05-07 13:46 | 44.56927 | 26.07964 | 316 ft | 2 kts | 178° |
| 2026-05-07 13:46 | 44.56889 | 26.07976 | 318 ft | 21 kts | 166° |
| 2026-05-07 13:46 | 44.56759 | 26.07962 | 319 ft | 15 kts | 240° |
| 2026-05-07 13:47 | 44.56723 | 26.07827 | 322 ft | 15 kts | 255° |
| 2026-05-07 13:47 | 44.56683 | 26.07688 | 320 ft | 17 kts | 229° |
| 2026-05-07 13:47 | 44.56603 | 26.07667 | 318 ft | 0 kts | 175° |
| 2026-05-07 13:48 | 44.56597 | 26.07668 | 318 ft | 2 kts | 175° |
| 2026-05-07 13:48 | 44.56572 | 26.07671 | 319 ft | 5 kts | 175° |
| 2026-05-07 13:48 | 44.56527 | 26.07680 | 317 ft | 9 kts | 167° |
| 2026-05-07 13:48 | 44.56485 | 26.07988 | 322 ft | 64 kts | 83° |
| 2026-05-07 13:49 | 44.56554 | 26.08865 | 318 ft | 117 kts | 84° |
| 2026-05-07 13:49 | 44.56652 | 26.10203 | 331 ft | 156 kts | 86° |
| 2026-05-07 13:49 | 44.56734 | 26.11686 | 916 ft | 149 kts | 87° |
| 2026-05-07 13:49 | 44.56800 | 26.13127 | 1463 ft | 149 kts | 88° |
| 2026-05-07 13:50 | 44.56912 | 26.14659 | 1738 ft | 169 kts | 87° |
| 2026-05-07 13:50 | 44.57056 | 26.16400 | 1999 ft | 191 kts | 85° |
| 2026-05-07 13:50 | 44.57219 | 26.18358 | 2287 ft | 214 kts | 86° |
| 2026-05-07 13:50 | 44.57399 | 26.20554 | 2613 ft | 238 kts | 86° |
| 2026-05-07 13:51 | 44.57591 | 26.22959 | 3094 ft | 256 kts | 84° |
| 2026-05-07 13:51 | 44.57789 | 26.25508 | 3727 ft | 268 kts | 85° |
| 2026-05-07 13:51 | 44.57993 | 26.28138 | 4524 ft | 274 kts | 84° |
| 2026-05-07 13:51 | 44.58195 | 26.30813 | 5325 ft | 279 kts | 84° |
| 2026-05-07 13:52 | 44.58398 | 26.33544 | 6116 ft | 283 kts | 84° |
| 2026-05-07 13:52 | 44.58601 | 26.36312 | 6893 ft | 287 kts | 84° |
| 2026-05-07 13:52 | 44.58806 | 26.39119 | 7644 ft | 291 kts | 84° |
| 2026-05-07 13:52 | 44.59013 | 26.41965 | 8405 ft | 295 kts | 84° |
| 2026-05-07 13:53 | 44.59223 | 26.44844 | 9194 ft | 297 kts | 84° |
| 2026-05-07 13:53 | 44.59436 | 26.47741 | 9980 ft | 301 kts | 84° |
| 2026-05-07 13:53 | 44.59654 | 26.50737 | 10352 ft | 320 kts | 84° |
| 2026-05-07 13:53 | 44.59885 | 26.53957 | 10519 ft | 342 kts | 84° |
| 2026-05-07 13:54 | 44.60125 | 26.57333 | 10936 ft | 352 kts | 84° |
| 2026-05-07 13:54 | 44.60372 | 26.60782 | 11518 ft | 357 kts | 84° |
| 2026-05-07 13:54 | 44.60621 | 26.64261 | 12185 ft | 359 kts | 85° |
| 2026-05-07 13:54 | 44.60869 | 26.67759 | 12835 ft | 361 kts | 85° |
| 2026-05-07 13:55 | 44.61118 | 26.71278 | 13467 ft | 364 kts | 86° |
| 2026-05-07 13:55 | 44.61368 | 26.74821 | 14113 ft | 365 kts | 85° |
| 2026-05-07 13:55 | 44.61618 | 26.78386 | 14652 ft | 369 kts | 86° |
| 2026-05-07 13:55 | 44.61885 | 26.81980 | 15171 ft | 372 kts | 83° |
| 2026-05-07 13:56 | 44.62352 | 26.85567 | 15711 ft | 375 kts | 80° |
| 2026-05-07 13:56 | 44.62818 | 26.89186 | 16188 ft | 379 kts | 84° |
| 2026-05-07 13:56 | 44.62810 | 26.92879 | 16681 ft | 380 kts | 99° |
| 2026-05-07 13:56 | 44.62117 | 26.96455 | 17199 ft | 381 kts | 114° |
| 2026-05-07 13:57 | 44.60799 | 26.99686 | 17683 ft | 383 kts | 129° |
| 2026-05-07 13:57 | 44.58944 | 27.02350 | 18165 ft | 384 kts | 144° |
| 2026-05-07 13:57 | 44.56695 | 27.04389 | 18621 ft | 386 kts | 151° |
| 2026-05-07 13:57 | 44.54380 | 27.06333 | 19054 ft | 390 kts | 151° |
| 2026-05-07 13:58 | 44.52003 | 27.08328 | 19458 ft | 396 kts | 150° |
| 2026-05-07 13:58 | 44.49630 | 27.10323 | 19877 ft | 400 kts | 150° |
| 2026-05-07 13:58 | 44.47265 | 27.12317 | 20326 ft | 403 kts | 150° |
| 2026-05-07 13:58 | 44.44825 | 27.14379 | 20750 ft | 406 kts | 150° |
| 2026-05-07 13:59 | 44.42392 | 27.16429 | 21156 ft | 410 kts | 150° |
| 2026-05-07 13:59 | 44.39935 | 27.18495 | 21565 ft | 414 kts | 150° |
| 2026-05-07 13:59 | 44.37456 | 27.20580 | 21928 ft | 418 kts | 150° |
| 2026-05-07 13:59 | 44.34951 | 27.22688 | 22294 ft | 422 kts | 150° |
| 2026-05-07 14:00 | 44.32427 | 27.24812 | 22671 ft | 426 kts | 150° |
| 2026-05-07 14:00 | 44.29878 | 27.26950 | 23043 ft | 429 kts | 150° |
| 2026-05-07 14:00 | 44.27308 | 27.29102 | 23412 ft | 433 kts | 150° |
| 2026-05-07 14:00 | 44.24715 | 27.31265 | 23760 ft | 436 kts | 150° |
| 2026-05-07 14:01 | 44.22099 | 27.33442 | 24080 ft | 439 kts | 150° |
| 2026-05-07 14:01 | 44.19466 | 27.35634 | 24424 ft | 442 kts | 150° |
| 2026-05-07 14:01 | 44.16819 | 27.37833 | 24755 ft | 444 kts | 150° |
| 2026-05-07 14:01 | 44.14155 | 27.40047 | 25048 ft | 448 kts | 150° |
| 2026-05-07 14:02 | 44.11471 | 27.42277 | 25369 ft | 450 kts | 150° |
| 2026-05-07 14:02 | 44.09259 | 27.44114 | 25643 ft | 453 kts | 150° |
| 2026-05-07 14:03 | 44.08244 | 27.44958 | 25754 ft | 453 kts | 150° |
| 2026-05-07 14:03 | 44.05525 | 27.47213 | 26068 ft | 456 kts | 150° |
| 2026-05-07 14:03 | 44.02791 | 27.49476 | 26385 ft | 459 kts | 150° |
| 2026-05-07 14:04 | 44.00044 | 27.51750 | 26700 ft | 461 kts | 150° |
| 2026-05-07 14:04 | 43.97282 | 27.54035 | 27010 ft | 463 kts | 150° |
| 2026-05-07 14:04 | 43.94508 | 27.56326 | 27339 ft | 466 kts | 150° |
| 2026-05-07 14:04 | 43.91711 | 27.58635 | 27614 ft | 469 kts | 151° |
| 2026-05-07 14:05 | 43.88898 | 27.60950 | 27918 ft | 472 kts | 151° |
| 2026-05-07 14:05 | 43.86067 | 27.63275 | 28232 ft | 474 kts | 151° |
| 2026-05-07 14:05 | 43.83219 | 27.65613 | 28557 ft | 477 kts | 151° |
| 2026-05-07 14:05 | 43.80360 | 27.67961 | 28858 ft | 479 kts | 151° |
| 2026-05-07 14:06 | 43.77494 | 27.70313 | 29289 ft | 479 kts | 151° |
| 2026-05-07 14:06 | 43.74633 | 27.72658 | 29734 ft | 478 kts | 151° |
| 2026-05-07 14:06 | 43.71772 | 27.75002 | 30172 ft | 478 kts | 151° |
| 2026-05-07 14:06 | 43.68905 | 27.77343 | 30499 ft | 479 kts | 151° |
| 2026-05-07 14:07 | 43.66039 | 27.79678 | 30865 ft | 478 kts | 151° |
| 2026-05-07 14:07 | 43.63175 | 27.82014 | 31258 ft | 477 kts | 150° |
| 2026-05-07 14:07 | 43.60472 | 27.84672 | 31648 ft | 478 kts | 141° |
| 2026-05-07 14:07 | 43.58066 | 27.87827 | 32047 ft | 478 kts | 135° |
| 2026-05-07 14:08 | 43.56530 | 27.89997 | 32305 ft | 477 kts | 135° |
| 2026-05-07 14:08 | 43.54214 | 27.93259 | 32716 ft | 476 kts | 135° |
| 2026-05-07 14:08 | 43.51892 | 27.96508 | 33116 ft | 475 kts | 135° |
| 2026-05-07 14:08 | 43.49567 | 27.99745 | 33467 ft | 476 kts | 135° |
| 2026-05-07 14:09 | 43.47239 | 28.02976 | 33843 ft | 475 kts | 135° |
| 2026-05-07 14:09 | 43.44912 | 28.06203 | 34197 ft | 474 kts | 135° |
| 2026-05-07 14:09 | 43.42592 | 28.09422 | 34521 ft | 473 kts | 135° |
| 2026-05-07 14:09 | 43.40276 | 28.12636 | 34843 ft | 472 kts | 135° |
| 2026-05-07 14:10 | 43.37967 | 28.15838 | 35074 ft | 472 kts | 135° |
| 2026-05-07 14:10 | 43.33266 | 28.22352 | 35123 ft | 482 kts | 135° |
| 2026-05-07 14:11 | 43.28521 | 28.28905 | 35126 ft | 484 kts | 135° |
| 2026-05-07 14:11 | 43.23793 | 28.35413 | 35133 ft | 485 kts | 135° |
| 2026-05-07 14:12 | 43.19028 | 28.41955 | 35142 ft | 485 kts | 135° |
| 2026-05-07 14:12 | 43.14231 | 28.48597 | 35131 ft | 488 kts | 131° |
| 2026-05-07 14:13 | 43.10489 | 28.56278 | 35130 ft | 485 kts | 112° |
| 2026-05-07 14:13 | 43.08448 | 28.65000 | 35130 ft | 482 kts | 104° |
| 2026-05-07 14:13 | 43.07096 | 28.69199 | 35141 ft | 486 kts | 122° |
| 2026-05-07 14:14 | 43.04961 | 28.72772 | 35127 ft | 487 kts | 137° |
| 2026-05-07 14:14 | 43.02282 | 28.75593 | 35126 ft | 486 kts | 150° |
| 2026-05-07 14:14 | 42.99257 | 28.77593 | 35117 ft | 483 kts | 163° |
| 2026-05-07 14:14 | 42.96016 | 28.78683 | 35114 ft | 477 kts | 177° |
| 2026-05-07 14:15 | 42.92724 | 28.78846 | 35114 ft | 473 kts | 185° |
| 2026-05-07 14:15 | 42.86133 | 28.78676 | 35113 ft | 474 kts | 185° |
| 2026-05-07 14:16 | 42.79524 | 28.78489 | 35135 ft | 476 kts | 185° |
| 2026-05-07 14:16 | 42.72895 | 28.78306 | 35118 ft | 477 kts | 185° |
| 2026-05-07 14:17 | 42.66254 | 28.78129 | 35126 ft | 478 kts | 185° |
| 2026-05-07 14:17 | 42.59611 | 28.77957 | 35127 ft | 478 kts | 185° |
| 2026-05-07 14:18 | 42.52963 | 28.77784 | 35135 ft | 477 kts | 185° |
| 2026-05-07 14:18 | 42.46328 | 28.77610 | 35145 ft | 477 kts | 185° |
| 2026-05-07 14:19 | 42.39696 | 28.77443 | 35130 ft | 476 kts | 185° |
| 2026-05-07 14:19 | 42.33078 | 28.77269 | 35151 ft | 475 kts | 185° |